La Grange, TX (78945)

8:14 AM CST on February 06, 2016 (GMT -0600)
Horton Street | | Change Station
CLOSE
Current Station
Personal Weather Station
Location: La Grange, TX
Elevation: 344 ft
Nearby Weather Stations

Elev 344 ft 29.92 °N, 96.87 °W | Updated 0 second ago

Partly Cloudy
Partly Cloudy
42.8 °F
Feels Like 43 °F
N
0.0
Wind Variable Wind from WSW
Gusts 0.0 mph

Today
High -- | Low -- °F
--% Chance of Precip.
Yesterday
High -- | Low -- °F
Precip. -- in
Pressure 30.30 in
Visibility 10.0 miles
Clouds Clear
Windchill 43 °F
Dew Point 8 °F
Humidity 24%
Rainfall 0.00 in
Snow Depth Not available.
7:14 AM 6:08 PM
Waning Crescent, 5% visible
METAR K3T5 061355Z AUTO 29005KT 10SM CLR 07/02 A3030 RMK AO2 T00650024
Pressure 30.30 in
Visibility 10.0 miles
Clouds Clear
Windchill 43 °F
Dew Point 8 °F
Humidity 24%
Rainfall 0.00 in
Snow Depth Not available.
7:14 AM 6:08 PM
Waning Crescent, 5% visible
METAR K3T5 061355Z AUTO 29005KT 10SM CLR 07/02 A3030 RMK AO2 T00650024

10-Day Weather Forecast

Almanac

Astronomy

Feb. 06, 2016 Rise Set
Actual Time
Civil Twilight
Nautical Twilight
Astronomical Twilight
Moon
Length of Visible Light
Length of Day
Tomorrow will be .
, % of the Moon is Illuminated

Today's Extremes

State Highs State Lows

Community

WunderPhotos

Upload Photos

1,890,976 photos uploaded!

WunderBlog® & News

Nearby

Air Quality

  Air Quality AQ Index Pollutant
Not available.

Snow Depth

Station Depth Elevation

Earthquake Activity

City Distance Mag. Time & Date
Minimum magnitude displayed is 2.5.

Coastal Water Temperatures

Place Temperature

Stations

Nearby Weather Stations

Station Location Temp. Windchill Dew Point Humidity Wind Precip. Elev Updated Type
                   

Watches & Warnings

There are currently no watches in effect.